Terminal Aerodrome Forecast
Issued by NWS Wakefield, VA

Home | Current Version | Previous Version | Text Only | Print | Product List | Glossary On
Versions: 1 2 3 4 5 6 7 8 9 10 11 12 13 14 15 16 17 18 19 20
000
FTUS41 KAKQ 272300
TAFECG
TAF
KECG 272323Z 2800/2824 32007KT P6SM BKN040
     FM280300 32007KT P6SM SKC
     FM280800 31009KT P6SM SKC
     FM281400 32010G16KT P6SM SKC=

USA.gov is the U.S. government's official web portal to all federal, state and local government web resources and services.